SBCY/CGB METAR and TAF weather

Enter ICAO airport designator
Station Type Date Time Source
SBCY METAR 2021/03/04 22:00 UTC NOAA

SBCY 042200Z 28004KT 9999 SCT025 SCT100 30/21 Q1009


Station Type Date Time Source
SBCY Decoded METAR 2021/03/04 22:00 UTC NOAA

Cuiaba Aeroporto , Brazil (SBCY) 15-39S 056-06W 182M
Mar 04, 2021 - 05:00 PM EST / 2021.03.04 2200 UTC
Wind: from the W (280 degrees) at 5 MPH (4 KT):0
Visibility: greater than 7 mile(s):0
Sky conditions: partly cloudy
Temperature: 86 F (30 C)
Dew Point: 69 F (21 C)
Relative Humidity: 58%
Pressure (altimeter): 29.80 in. Hg (1009 hPa)
ob: SBCY 042200Z 28004KT 9999 SCT025 SCT100 30/21 Q1009
cycle: 22

Station Type Date Time Source
SBCY TAF 2021/03/04 18:31 UTC NOAA

TAF SBCY 041525Z 0418/0518 33010KT 9999 SCT020 FEW030TCU TN24/0510Z TX32/0518Z
BECMG 0500/0502 36005KT SCT020
BECMG 0505/0507 33005KT 8000 BKN015
BECMG 0511/0513 35010KT 9999 SCT020
BECMG 0515/0517 32015KT BKN023 FEW030TCU
RMK PGB

Example: see airport list